createdAt,value
2023-12-09T00:00:25.567Z,620.00
2023-12-09T00:01:25.574Z,623.00
2023-12-09T00:02:25.759Z,621.00
2023-12-09T00:03:25.692Z,622.00
2023-12-09T00:04:25.698Z,620.00
2023-12-09T00:05:25.647Z,621.00
2023-12-09T00:06:25.786Z,623.00
2023-12-09T00:07:25.672Z,621.00
2023-12-09T00:08:25.675Z,625.00
2023-12-09T00:09:25.773Z,622.00
2023-12-09T00:10:25.729Z,624.00
2023-12-09T00:11:25.760Z,623.00
2023-12-09T00:12:26.057Z,621.00
2023-12-09T00:13:25.821Z,622.00
2023-12-09T00:14:25.824Z,623.00
2023-12-09T00:15:25.897Z,618.00
2023-12-09T00:16:25.836Z,621.00
2023-12-09T00:17:26.011Z,624.00
2023-12-09T00:18:25.991Z,623.00
2023-12-09T00:19:25.957Z,624.00
2023-12-09T00:20:25.917Z,621.00
2023-12-09T00:21:26.027Z,622.00
2023-12-09T00:22:26.118Z,622.00
2023-12-09T00:23:25.961Z,622.00
2023-12-09T00:24:26.028Z,621.00
2023-12-09T00:25:25.987Z,622.00
2023-12-09T00:26:26.028Z,622.00
2023-12-09T00:27:26.086Z,621.00
2023-12-09T00:28:26.052Z,621.00
2023-12-09T00:29:26.092Z,622.00
2023-12-09T00:30:26.149Z,622.00
2023-12-09T00:31:26.154Z,624.00
2023-12-09T00:32:26.580Z,621.00
2023-12-09T00:33:26.220Z,623.00
2023-12-09T00:34:26.296Z,624.00
2023-12-09T00:35:26.215Z,621.00
2023-12-09T00:36:26.250Z,619.00
2023-12-09T00:37:26.234Z,619.00
2023-12-09T00:38:26.225Z,621.00
2023-12-09T00:39:26.267Z,615.00
2023-12-09T00:40:26.272Z,622.00
2023-12-09T00:41:26.286Z,620.00
2023-12-09T00:42:26.546Z,615.00
2023-12-09T00:43:26.312Z,620.00
2023-12-09T00:44:26.339Z,617.00
2023-12-09T00:45:26.512Z,625.00
2023-12-09T00:46:26.356Z,622.00
2023-12-09T00:47:26.453Z,622.00
2023-12-09T00:48:26.476Z,620.00
2023-12-09T00:49:26.489Z,624.00
2023-12-09T00:50:26.422Z,623.00
2023-12-09T00:51:26.532Z,624.00
2023-12-09T00:52:26.662Z,620.00
2023-12-09T00:53:26.469Z,620.00
2023-12-09T00:54:26.550Z,619.00
2023-12-09T00:55:26.503Z,620.00
2023-12-09T00:56:34.046Z,621.00
2023-12-09T00:57:27.640Z,622.00
2023-12-09T00:58:26.536Z,621.00
2023-12-09T00:59:26.513Z,620.00
2023-12-09T01:00:26.570Z,621.00
2023-12-09T01:01:26.528Z,621.00
2023-12-09T01:02:26.908Z,622.00
2023-12-09T01:03:26.589Z,621.00
2023-12-09T01:04:26.634Z,620.00
2023-12-09T01:05:26.548Z,621.00
2023-12-09T01:06:26.595Z,622.00
2023-12-09T01:07:26.582Z,623.00
2023-12-09T01:08:26.592Z,623.00
2023-12-09T01:09:26.583Z,621.00
2023-12-09T01:10:26.565Z,623.00
2023-12-09T01:11:26.551Z,621.00
2023-12-09T01:12:26.854Z,617.00
2023-12-09T01:13:26.566Z,620.00
2023-12-09T01:14:26.552Z,617.00
2023-12-09T01:15:26.609Z,620.00
2023-12-09T01:16:26.582Z,619.00
2023-12-09T01:17:26.592Z,619.00
2023-12-09T01:18:26.669Z,621.00
2023-12-09T01:19:26.594Z,623.00
2023-12-09T01:20:26.576Z,622.00
2023-12-09T01:21:26.595Z,619.00
2023-12-09T01:22:26.751Z,621.00
2023-12-09T01:23:26.583Z,620.00
2023-12-09T01:24:26.595Z,622.00
2023-12-09T01:25:26.577Z,622.00
2023-12-09T01:26:26.572Z,620.00
2023-12-09T01:27:26.710Z,622.00
2023-12-09T01:28:26.566Z,622.00
2023-12-09T01:29:26.586Z,624.00
2023-12-09T01:30:26.592Z,622.00
2023-12-09T01:31:26.570Z,622.00
2023-12-09T01:32:26.928Z,623.00
2023-12-09T01:33:26.732Z,622.00
2023-12-09T01:34:26.724Z,622.00
2023-12-09T01:35:26.663Z,621.00
2023-12-09T01:36:26.725Z,621.00
2023-12-09T01:37:26.689Z,619.00
2023-12-09T01:38:26.725Z,621.00
2023-12-09T01:39:26.773Z,620.00
2023-12-09T01:40:26.723Z,623.00
2023-12-09T01:41:26.763Z,621.00
2023-12-09T01:42:27.134Z,624.00
2023-12-09T01:43:26.811Z,623.00
2023-12-09T01:44:26.805Z,622.00
2023-12-09T01:45:26.862Z,623.00
2023-12-09T01:46:26.860Z,622.00
2023-12-09T01:47:26.872Z,621.00
2023-12-09T01:48:27.070Z,617.00
2023-12-09T01:49:27.099Z,617.00
2023-12-09T01:50:26.964Z,622.00
2023-12-09T01:51:26.984Z,618.00
2023-12-09T01:52:27.167Z,623.00
2023-12-09T01:53:26.944Z,626.00
2023-12-09T01:54:27.000Z,622.00
2023-12-09T01:55:26.975Z,624.00
2023-12-09T01:56:27.147Z,622.00
2023-12-09T01:57:27.098Z,618.00
2023-12-09T01:58:27.034Z,619.00
2023-12-09T01:59:27.033Z,621.00
2023-12-09T02:00:27.108Z,622.00
2023-12-09T02:01:27.088Z,619.00
2023-12-09T02:02:27.418Z,623.00
2023-12-09T02:03:27.154Z,618.00
2023-12-09T02:04:27.132Z,622.00
2023-12-09T02:05:27.145Z,621.00
2023-12-09T02:06:27.194Z,622.00
2023-12-09T02:07:27.184Z,622.00
2023-12-09T02:08:27.188Z,620.00
2023-12-09T02:09:27.250Z,622.00
2023-12-09T02:10:27.258Z,620.00
2023-12-09T02:11:27.282Z,620.00
2023-12-09T02:12:27.631Z,620.00
2023-12-09T02:13:27.297Z,619.00
2023-12-09T02:14:27.300Z,621.00
2023-12-09T02:15:27.358Z,620.00
2023-12-09T02:16:27.381Z,620.00
2023-12-09T02:17:27.403Z,621.00
2023-12-09T02:18:27.461Z,618.00
2023-12-09T02:19:27.462Z,621.00
2023-12-09T02:20:27.418Z,622.00
2023-12-09T02:21:27.500Z,618.00
2023-12-09T02:22:27.660Z,618.00
2023-12-09T02:23:27.588Z,616.00
2023-12-09T02:24:27.722Z,617.00
2023-12-09T02:25:27.561Z,616.00
2023-12-09T02:26:27.613Z,620.00
2023-12-09T02:27:27.799Z,619.00
2023-12-09T02:28:27.633Z,619.00
2023-12-09T02:29:27.654Z,618.00
2023-12-09T02:30:27.638Z,618.00
2023-12-09T02:31:27.641Z,617.00
2023-12-09T02:32:27.902Z,616.00
2023-12-09T02:33:27.883Z,617.00
2023-12-09T02:34:27.834Z,621.00
2023-12-09T02:35:27.755Z,619.00
2023-12-09T02:36:27.731Z,618.00
2023-12-09T02:37:27.753Z,619.00
2023-12-09T02:38:27.757Z,617.00
2023-12-09T02:39:27.841Z,611.00
2023-12-09T02:40:27.794Z,615.00
2023-12-09T02:41:27.821Z,615.00
2023-12-09T02:42:28.150Z,619.00
2023-12-09T02:43:27.858Z,613.00
2023-12-09T02:44:27.888Z,614.00
2023-12-09T02:45:27.930Z,612.00
2023-12-09T02:46:27.922Z,613.00
2023-12-09T02:47:27.949Z,614.00
2023-12-09T02:48:28.072Z,615.00
2023-12-09T02:49:28.073Z,615.00
2023-12-09T02:50:27.993Z,620.00
2023-12-09T02:51:28.064Z,616.00
2023-12-09T02:52:28.334Z,612.00
2023-12-09T02:53:28.044Z,613.00
2023-12-09T02:54:28.107Z,612.00
2023-12-09T02:55:28.060Z,617.00
2023-12-09T02:56:28.102Z,611.00
2023-12-09T02:57:28.176Z,615.00
2023-12-09T02:58:28.143Z,614.00
2023-12-09T02:59:28.152Z,613.00
2023-12-09T03:00:28.200Z,615.00
2023-12-09T03:01:28.199Z,612.00
2023-12-09T03:02:28.446Z,614.00
2023-12-09T03:03:28.299Z,609.00
2023-12-09T03:04:28.257Z,611.00
2023-12-09T03:05:28.330Z,611.00
2023-12-09T03:06:28.352Z,611.00
2023-12-09T03:07:28.310Z,610.00
2023-12-09T03:08:28.320Z,613.00
2023-12-09T03:09:28.448Z,614.00
2023-12-09T03:10:28.372Z,612.00
2023-12-09T03:11:28.375Z,611.00
2023-12-09T03:12:28.683Z,611.00
2023-12-09T03:13:28.403Z,608.00
2023-12-09T03:14:28.433Z,614.00
2023-12-09T03:15:28.649Z,611.00
2023-12-09T03:16:28.455Z,613.00
2023-12-09T03:17:28.466Z,611.00
2023-12-09T03:18:28.665Z,610.00
2023-12-09T03:19:28.580Z,613.00
2023-12-09T03:20:28.541Z,612.00
2023-12-09T03:21:28.590Z,614.00
2023-12-09T03:22:28.899Z,610.00
2023-12-09T03:23:28.594Z,609.00
2023-12-09T03:24:28.761Z,608.00
2023-12-09T03:25:28.626Z,612.00
2023-12-09T03:26:28.632Z,609.00
2023-12-09T03:27:28.733Z,614.00
2023-12-09T03:28:28.678Z,610.00
2023-12-09T03:29:28.735Z,609.00
2023-12-09T03:30:28.767Z,608.00
2023-12-09T03:31:28.848Z,608.00
2023-12-09T03:32:29.062Z,607.00
2023-12-09T03:33:28.900Z,609.00
2023-12-09T03:34:28.857Z,609.00
2023-12-09T03:35:28.811Z,609.00
2023-12-09T03:36:28.945Z,609.00
2023-12-09T03:37:28.861Z,610.00
2023-12-09T03:38:28.876Z,607.00
2023-12-09T03:39:28.962Z,608.00
2023-12-09T03:40:28.885Z,608.00
2023-12-09T03:41:28.942Z,610.00
2023-12-09T03:42:29.330Z,607.00
2023-12-09T03:43:28.999Z,611.00
2023-12-09T03:44:29.014Z,609.00
2023-12-09T03:45:29.078Z,605.00
2023-12-09T03:46:29.060Z,606.00
2023-12-09T03:47:29.916Z,607.00
2023-12-09T03:48:29.199Z,607.00
2023-12-09T03:49:29.147Z,608.00
2023-12-09T03:50:29.085Z,608.00
2023-12-09T03:51:29.159Z,611.00
2023-12-09T03:52:29.361Z,609.00
2023-12-09T03:53:29.151Z,611.00
2023-12-09T03:54:29.214Z,605.00
2023-12-09T03:55:29.207Z,605.00
2023-12-09T03:56:29.251Z,607.00
2023-12-09T03:57:29.360Z,611.00
2023-12-09T03:58:29.264Z,609.00
2023-12-09T03:59:29.292Z,611.00
2023-12-09T04:00:29.353Z,604.00
2023-12-09T04:01:29.371Z,609.00
2023-12-09T04:02:29.619Z,605.00
2023-12-09T04:03:29.473Z,607.00
2023-12-09T04:04:29.462Z,602.00
2023-12-09T04:05:29.432Z,609.00
2023-12-09T04:06:29.468Z,609.00
2023-12-09T04:07:29.468Z,606.00
2023-12-09T04:08:29.481Z,606.00
2023-12-09T04:09:29.466Z,609.00
2023-12-09T04:10:29.488Z,605.00
2023-12-09T04:11:29.515Z,605.00
2023-12-09T04:12:29.791Z,610.00
2023-12-09T04:13:29.526Z,605.00
2023-12-09T04:14:29.541Z,606.00
2023-12-09T04:15:29.620Z,605.00
2023-12-09T04:16:29.609Z,609.00
2023-12-09T04:17:29.675Z,609.00
2023-12-09T04:18:29.743Z,604.00
2023-12-09T04:19:29.776Z,605.00
2023-12-09T04:20:29.739Z,608.00
2023-12-09T04:21:29.673Z,602.00
2023-12-09T04:22:29.708Z,609.00
2023-12-09T04:23:29.758Z,606.00
2023-12-09T04:24:29.732Z,604.00
2023-12-09T04:25:29.739Z,606.00
2023-12-09T04:26:29.758Z,604.00
2023-12-09T04:27:29.880Z,606.00
2023-12-09T04:28:29.806Z,603.00
2023-12-09T04:29:29.832Z,606.00
2023-12-09T04:30:29.884Z,605.00
2023-12-09T04:31:29.907Z,600.00
2023-12-09T04:32:30.213Z,610.00
2023-12-09T04:33:29.953Z,607.00
2023-12-09T04:34:29.995Z,605.00
2023-12-09T04:35:29.984Z,611.00
2023-12-09T04:36:30.023Z,604.00
2023-12-09T04:37:30.021Z,606.00
2023-12-09T04:38:30.037Z,603.00
2023-12-09T04:39:30.078Z,605.00
2023-12-09T04:40:30.051Z,603.00
2023-12-09T04:41:30.060Z,610.00
2023-12-09T04:42:30.441Z,603.00
2023-12-09T04:43:30.169Z,604.00
2023-12-09T04:44:30.171Z,603.00
2023-12-09T04:45:30.214Z,603.00
2023-12-09T04:46:30.198Z,604.00
2023-12-09T04:47:30.383Z,602.00
2023-12-09T04:48:30.448Z,604.00
2023-12-09T04:49:30.323Z,608.00
2023-12-09T04:50:30.288Z,608.00
2023-12-09T04:51:30.305Z,605.00
2023-12-09T04:52:37.650Z,600.00
2023-12-09T04:53:41.056Z,600.00
2023-12-09T04:54:37.684Z,600.00
2023-12-09T04:55:37.624Z,600.00
2023-12-09T04:56:37.589Z,600.00
2023-12-09T04:57:37.659Z,600.00
2023-12-09T04:58:37.611Z,600.00
2023-12-09T04:59:37.613Z,602.00
2023-12-09T05:00:37.676Z,603.00
2023-12-09T05:01:37.626Z,602.00
2023-12-09T05:02:37.645Z,601.00
2023-12-09T05:03:37.768Z,608.00
2023-12-09T05:04:37.695Z,603.00
2023-12-09T05:05:37.690Z,603.00
2023-12-09T05:06:37.728Z,602.00
2023-12-09T05:07:37.669Z,606.00
2023-12-09T05:08:37.677Z,602.00
2023-12-09T05:09:37.712Z,609.00
2023-12-09T05:10:37.618Z,603.00
2023-12-09T05:11:37.623Z,602.00
2023-12-09T05:12:37.763Z,610.00
2023-12-09T05:13:37.667Z,606.00
2023-12-09T05:14:37.626Z,603.00
2023-12-09T05:15:37.704Z,608.00
2023-12-09T05:16:37.661Z,605.00
2023-12-09T05:17:37.706Z,607.00
2023-12-09T05:18:37.801Z,605.00
2023-12-09T05:19:37.720Z,608.00
2023-12-09T05:20:37.634Z,601.00
2023-12-09T05:21:37.739Z,607.00
2023-12-09T05:22:37.666Z,612.00
2023-12-09T05:23:37.651Z,606.00
2023-12-09T05:24:37.729Z,611.00
2023-12-09T05:25:37.652Z,607.00
2023-12-09T05:26:37.657Z,605.00
2023-12-09T05:27:37.687Z,607.00
2023-12-09T05:28:37.680Z,607.00
2023-12-09T05:29:37.718Z,608.00
2023-12-09T05:30:37.861Z,610.00
2023-12-09T05:31:37.691Z,611.00
2023-12-09T05:32:37.737Z,604.00
2023-12-09T05:33:37.800Z,602.00
2023-12-09T05:34:37.764Z,604.00
2023-12-09T05:35:37.698Z,605.00
2023-12-09T05:36:37.733Z,604.00
2023-12-09T05:37:37.786Z,610.00
2023-12-09T05:38:37.666Z,604.00
2023-12-09T05:39:37.769Z,604.00
2023-12-09T05:40:37.698Z,605.00
2023-12-09T05:41:37.673Z,607.00
2023-12-09T05:42:37.796Z,604.00
2023-12-09T05:43:37.699Z,605.00
2023-12-09T05:44:37.714Z,606.00
2023-12-09T05:45:37.829Z,608.00
2023-12-09T05:46:37.764Z,605.00
2023-12-09T05:47:37.736Z,601.00
2023-12-09T05:48:37.791Z,606.00
2023-12-09T05:49:37.780Z,604.00
2023-12-09T05:50:37.720Z,605.00
2023-12-09T05:51:37.814Z,604.00
2023-12-09T05:52:37.731Z,602.00
2023-12-09T05:53:37.694Z,601.00
2023-12-09T05:54:37.777Z,603.00
2023-12-09T05:55:37.716Z,602.00
2023-12-09T05:56:37.791Z,603.00
2023-12-09T05:57:37.813Z,600.00
2023-12-09T05:58:37.752Z,604.00
2023-12-09T05:59:37.718Z,608.00
2023-12-09T06:00:37.758Z,602.00
2023-12-09T06:01:37.782Z,607.00
2023-12-09T06:02:37.737Z,603.00
2023-12-09T06:03:37.907Z,602.00
2023-12-09T06:04:37.792Z,605.00
2023-12-09T06:05:37.727Z,604.00
2023-12-09T06:06:37.776Z,607.00
2023-12-09T06:07:37.819Z,603.00
2023-12-09T06:08:37.754Z,603.00
2023-12-09T06:09:37.801Z,605.00
2023-12-09T06:10:37.751Z,607.00
2023-12-09T06:11:37.725Z,605.00
2023-12-09T06:12:37.815Z,600.00
2023-12-09T06:13:37.774Z,601.00
2023-12-09T06:14:37.744Z,603.00
2023-12-09T06:15:37.854Z,600.00
2023-12-09T06:16:37.787Z,606.00
2023-12-09T06:17:37.842Z,603.00
2023-12-09T06:18:37.911Z,602.00
2023-12-09T06:19:37.912Z,603.00
2023-12-09T06:20:37.868Z,607.00
2023-12-09T06:21:37.932Z,603.00
2023-12-09T06:22:37.905Z,604.00
2023-12-09T06:23:37.917Z,602.00
2023-12-09T06:24:38.048Z,604.00
2023-12-09T06:25:37.959Z,603.00
2023-12-09T06:26:37.992Z,601.00
2023-12-09T06:27:38.090Z,602.00
2023-12-09T06:28:38.037Z,602.00
2023-12-09T06:29:38.050Z,605.00
2023-12-09T06:30:38.242Z,601.00
2023-12-09T06:31:38.089Z,606.00
2023-12-09T06:32:38.139Z,602.00
2023-12-09T06:33:38.224Z,604.00
2023-12-09T06:34:38.198Z,602.00
2023-12-09T06:35:38.185Z,606.00
2023-12-09T06:36:38.349Z,603.00
2023-12-09T06:37:38.287Z,604.00
2023-12-09T06:38:38.265Z,603.00
2023-12-09T06:39:38.302Z,603.00
2023-12-09T06:40:38.306Z,600.00
2023-12-09T06:41:38.324Z,600.00
2023-12-09T06:42:38.461Z,606.00
2023-12-09T06:43:38.391Z,606.00
2023-12-09T06:44:38.396Z,604.00
2023-12-09T06:45:38.608Z,603.00
2023-12-09T06:46:38.422Z,600.00
2023-12-09T06:47:38.501Z,600.00
2023-12-09T06:48:38.755Z,602.00
2023-12-09T06:49:38.565Z,603.00
2023-12-09T06:50:38.532Z,606.00
2023-12-09T06:51:38.580Z,604.00
2023-12-09T06:52:38.631Z,604.00
2023-12-09T06:53:38.614Z,603.00
2023-12-09T06:54:38.769Z,606.00
2023-12-09T06:55:38.641Z,602.00
2023-12-09T06:56:38.639Z,608.00
2023-12-09T06:57:38.722Z,607.00
2023-12-09T06:58:38.698Z,603.00
2023-12-09T06:59:38.718Z,603.00
2023-12-09T07:00:39.098Z,605.00
2023-12-09T07:01:38.783Z,605.00
2023-12-09T07:02:48.793Z,608.00
2023-12-09T07:03:39.860Z,607.00
2023-12-09T07:04:38.824Z,608.00
2023-12-09T07:05:38.841Z,604.00
2023-12-09T07:06:38.824Z,603.00
2023-12-09T07:07:38.799Z,600.00
2023-12-09T07:08:38.810Z,605.00
2023-12-09T07:09:38.823Z,602.00
2023-12-09T07:10:38.789Z,604.00
2023-12-09T07:11:38.787Z,601.00
2023-12-09T07:12:38.845Z,603.00
2023-12-09T07:13:38.845Z,607.00
2023-12-09T07:14:38.798Z,606.00
2023-12-09T07:15:38.839Z,608.00
2023-12-09T07:16:38.808Z,611.00
2023-12-09T07:17:38.920Z,601.00
2023-12-09T07:18:38.924Z,605.00
2023-12-09T07:19:39.036Z,609.00
2023-12-09T07:20:38.792Z,606.00
2023-12-09T07:21:38.853Z,606.00
2023-12-09T07:22:38.821Z,600.00
2023-12-09T07:23:38.840Z,603.00
2023-12-09T07:24:38.864Z,609.00
2023-12-09T07:25:38.828Z,602.00
2023-12-09T07:26:38.844Z,606.00
2023-12-09T07:27:38.949Z,602.00
2023-12-09T07:28:38.895Z,605.00
2023-12-09T07:29:38.918Z,608.00
2023-12-09T07:30:38.984Z,603.00
2023-12-09T07:31:38.923Z,606.00
2023-12-09T07:32:39.053Z,603.00
2023-12-09T07:33:39.150Z,604.00
2023-12-09T07:34:39.060Z,605.00
2023-12-09T07:35:39.024Z,608.00
2023-12-09T07:36:39.118Z,602.00
2023-12-09T07:37:39.068Z,605.00
2023-12-09T07:38:39.112Z,604.00
2023-12-09T07:39:39.183Z,603.00
2023-12-09T07:40:39.121Z,604.00
2023-12-09T07:41:39.155Z,604.00
2023-12-09T07:42:39.252Z,604.00
2023-12-09T07:43:40.977Z,601.00
2023-12-09T07:44:39.217Z,605.00
2023-12-09T07:45:39.308Z,598.00
2023-12-09T07:46:39.277Z,605.00
2023-12-09T07:47:39.341Z,614.00
2023-12-09T07:48:39.449Z,607.00
2023-12-09T07:49:39.427Z,605.00
2023-12-09T07:50:39.357Z,603.00
2023-12-09T07:51:39.410Z,606.00
2023-12-09T07:52:39.420Z,604.00
2023-12-09T07:53:39.493Z,604.00
2023-12-09T07:54:39.483Z,609.00
2023-12-09T07:55:39.466Z,611.00
2023-12-09T07:56:39.524Z,603.00
2023-12-09T07:57:39.567Z,602.00
2023-12-09T07:58:39.554Z,603.00
2023-12-09T07:59:39.547Z,605.00
2023-12-09T08:00:39.724Z,607.00
2023-12-09T08:01:39.727Z,604.00
2023-12-09T08:02:39.630Z,605.00
2023-12-09T08:03:39.815Z,605.00
2023-12-09T08:04:39.826Z,608.00
2023-12-09T08:05:39.753Z,607.00
2023-12-09T08:06:39.771Z,605.00
2023-12-09T08:07:39.775Z,603.00
2023-12-09T08:08:39.812Z,609.00
2023-12-09T08:09:40.004Z,605.00
2023-12-09T08:10:39.842Z,606.00
2023-12-09T08:11:39.870Z,604.00
2023-12-09T08:12:39.965Z,604.00
2023-12-09T08:13:40.350Z,604.00
2023-12-09T08:14:39.933Z,605.00
2023-12-09T08:15:39.960Z,605.00
2023-12-09T08:16:39.977Z,605.00
2023-12-09T08:17:40.035Z,608.00
2023-12-09T08:18:40.126Z,608.00
2023-12-09T08:19:40.096Z,605.00
2023-12-09T08:20:40.073Z,602.00
2023-12-09T08:21:40.128Z,606.00
2023-12-09T08:22:40.138Z,609.00
2023-12-09T08:23:40.128Z,605.00
2023-12-09T08:24:40.175Z,607.00
2023-12-09T08:25:40.132Z,607.00
2023-12-09T08:26:40.187Z,604.00
2023-12-09T08:27:40.243Z,602.00
2023-12-09T08:28:40.251Z,603.00
2023-12-09T08:29:40.270Z,609.00
2023-12-09T08:30:40.406Z,607.00
2023-12-09T08:31:40.317Z,603.00
2023-12-09T08:32:40.377Z,600.00
2023-12-09T08:33:40.490Z,606.00
2023-12-09T08:34:40.450Z,610.00
2023-12-09T08:35:41.780Z,609.00
2023-12-09T08:36:40.468Z,606.00
2023-12-09T08:37:40.597Z,603.00
2023-12-09T08:38:40.492Z,603.00
2023-12-09T08:39:40.553Z,604.00
2023-12-09T08:40:40.517Z,605.00
2023-12-09T08:41:40.531Z,604.00
2023-12-09T08:42:40.739Z,607.00
2023-12-09T08:43:40.570Z,605.00
2023-12-09T08:44:40.608Z,606.00
2023-12-09T08:45:40.654Z,608.00
2023-12-09T08:46:40.629Z,607.00
2023-12-09T08:47:43.879Z,611.00
2023-12-09T08:48:40.893Z,611.00
2023-12-09T08:49:40.839Z,607.00
2023-12-09T08:50:40.686Z,609.00
2023-12-09T08:51:40.686Z,607.00
2023-12-09T08:52:40.652Z,612.00
2023-12-09T08:53:40.651Z,608.00
2023-12-09T08:54:40.684Z,608.00
2023-12-09T08:55:40.690Z,605.00
2023-12-09T08:56:40.695Z,611.00
2023-12-09T08:57:40.716Z,609.00
2023-12-09T08:58:40.729Z,610.00
2023-12-09T08:59:40.657Z,605.00
2023-12-09T09:00:40.741Z,612.00
2023-12-09T09:01:40.716Z,604.00
2023-12-09T09:02:40.676Z,606.00
2023-12-09T09:03:40.795Z,604.00
2023-12-09T09:04:40.714Z,606.00
2023-12-09T09:05:40.746Z,606.00
2023-12-09T09:06:40.703Z,606.00
2023-12-09T09:07:40.686Z,609.00
2023-12-09T09:08:40.693Z,604.00
2023-12-09T09:09:40.753Z,608.00
2023-12-09T09:10:40.670Z,607.00
2023-12-09T09:11:40.728Z,604.00
2023-12-09T09:12:40.888Z,608.00
2023-12-09T09:13:40.817Z,612.00
2023-12-09T09:14:40.719Z,608.00
2023-12-09T09:15:40.864Z,607.00
2023-12-09T09:16:40.717Z,606.00
2023-12-09T09:17:40.810Z,604.00
2023-12-09T09:18:40.806Z,608.00
2023-12-09T09:19:40.804Z,606.00
2023-12-09T09:20:40.739Z,611.00
2023-12-09T09:21:40.757Z,612.00
2023-12-09T09:22:42.221Z,606.00
2023-12-09T09:23:40.888Z,608.00
2023-12-09T09:24:40.920Z,607.00
2023-12-09T09:25:40.923Z,607.00
2023-12-09T09:26:40.947Z,607.00
2023-12-09T09:27:41.098Z,606.00
2023-12-09T09:28:40.985Z,607.00
2023-12-09T09:29:41.012Z,606.00
2023-12-09T09:30:41.083Z,609.00
2023-12-09T09:31:41.071Z,604.00
2023-12-09T09:32:41.096Z,607.00
2023-12-09T09:33:41.232Z,609.00
2023-12-09T09:34:41.247Z,610.00
2023-12-09T09:35:41.166Z,606.00
2023-12-09T09:36:41.224Z,608.00
2023-12-09T09:37:41.226Z,607.00
2023-12-09T09:38:41.225Z,613.00
2023-12-09T09:39:41.301Z,612.00
2023-12-09T09:40:41.353Z,606.00
2023-12-09T09:41:41.338Z,610.00
2023-12-09T09:42:41.331Z,608.00
2023-12-09T09:43:41.385Z,610.00
2023-12-09T09:44:41.366Z,607.00
2023-12-09T09:45:41.424Z,609.00
2023-12-09T09:46:41.432Z,609.00
2023-12-09T09:47:41.529Z,613.00
2023-12-09T09:48:41.568Z,609.00
2023-12-09T09:49:41.605Z,611.00
2023-12-09T09:50:41.516Z,612.00
2023-12-09T09:51:41.574Z,609.00
2023-12-09T09:52:41.570Z,608.00
2023-12-09T09:53:41.561Z,617.00
2023-12-09T09:54:41.668Z,607.00
2023-12-09T09:55:41.617Z,608.00
2023-12-09T09:56:41.642Z,609.00
2023-12-09T09:57:41.733Z,607.00
2023-12-09T09:58:41.677Z,608.00
2023-12-09T09:59:41.715Z,610.00
2023-12-09T10:00:41.868Z,608.00
2023-12-09T10:01:41.793Z,609.00
2023-12-09T10:02:41.752Z,608.00
2023-12-09T10:03:41.865Z,608.00
2023-12-09T10:04:41.828Z,606.00
2023-12-09T10:05:41.835Z,610.00
2023-12-09T10:06:41.917Z,608.00
2023-12-09T10:07:41.912Z,606.00
2023-12-09T10:08:41.911Z,609.00
2023-12-09T10:09:41.924Z,609.00
2023-12-09T10:10:41.952Z,609.00
2023-12-09T10:11:41.963Z,607.00
2023-12-09T10:12:42.091Z,610.00
2023-12-09T10:13:42.001Z,607.00
2023-12-09T10:14:42.023Z,605.00
2023-12-09T10:15:42.079Z,610.00
2023-12-09T10:16:42.087Z,605.00
2023-12-09T10:17:42.284Z,607.00
2023-12-09T10:18:42.183Z,607.00
2023-12-09T10:19:42.193Z,603.00
2023-12-09T10:20:42.140Z,604.00
2023-12-09T10:21:42.253Z,607.00
2023-12-09T10:22:42.210Z,606.00
2023-12-09T10:23:42.246Z,603.00
2023-12-09T10:24:50.037Z,608.00
2023-12-09T10:25:43.284Z,608.00
2023-12-09T10:26:42.334Z,607.00
2023-12-09T10:27:42.336Z,608.00
2023-12-09T10:28:42.284Z,607.00
2023-12-09T10:29:44.798Z,611.00
2023-12-09T10:30:42.299Z,608.00
2023-12-09T10:31:42.261Z,609.00
2023-12-09T10:32:42.313Z,609.00
2023-12-09T10:33:42.427Z,609.00
2023-12-09T10:34:42.424Z,607.00
2023-12-09T10:35:42.288Z,610.00
2023-12-09T10:36:42.370Z,607.00
2023-12-09T10:37:42.271Z,609.00
2023-12-09T10:38:42.281Z,609.00
2023-12-09T10:39:42.411Z,608.00
2023-12-09T10:40:42.289Z,607.00
2023-12-09T10:41:42.294Z,607.00
2023-12-09T10:42:42.385Z,610.00
2023-12-09T10:43:42.304Z,609.00
2023-12-09T10:44:42.327Z,611.00
2023-12-09T10:45:42.442Z,609.00
2023-12-09T10:46:42.299Z,608.00
2023-12-09T10:47:42.401Z,609.00
2023-12-09T10:48:42.413Z,610.00
2023-12-09T10:49:42.404Z,608.00
2023-12-09T10:50:42.315Z,606.00
2023-12-09T10:51:42.365Z,611.00
2023-12-09T10:52:42.326Z,609.00
2023-12-09T10:53:42.340Z,608.00
2023-12-09T10:54:42.398Z,611.00
2023-12-09T10:55:42.315Z,606.00
2023-12-09T10:56:42.378Z,608.00
2023-12-09T10:57:42.394Z,609.00
2023-12-09T10:58:42.374Z,608.00
2023-12-09T10:59:42.383Z,610.00
2023-12-09T11:00:42.464Z,609.00
2023-12-09T11:01:42.367Z,606.00
2023-12-09T11:02:42.330Z,607.00
2023-12-09T11:03:42.446Z,609.00
2023-12-09T11:04:42.444Z,607.00
2023-12-09T11:05:42.473Z,602.00
2023-12-09T11:06:42.403Z,606.00
2023-12-09T11:07:42.367Z,604.00
2023-12-09T11:08:42.392Z,606.00
2023-12-09T11:09:42.396Z,608.00
2023-12-09T11:10:42.392Z,605.00
2023-12-09T11:11:42.367Z,607.00
2023-12-09T11:12:42.470Z,606.00
2023-12-09T11:13:42.403Z,604.00
2023-12-09T11:14:42.388Z,606.00
2023-12-09T11:15:42.434Z,604.00
2023-12-09T11:16:42.386Z,605.00
2023-12-09T11:17:42.468Z,605.00
2023-12-09T11:18:42.505Z,606.00
2023-12-09T11:19:42.512Z,608.00
2023-12-09T11:20:42.732Z,606.00
2023-12-09T11:21:42.428Z,606.00
2023-12-09T11:22:42.401Z,609.00
2023-12-09T11:23:42.451Z,605.00
2023-12-09T11:24:42.408Z,605.00
2023-12-09T11:25:42.477Z,606.00
2023-12-09T11:26:42.385Z,611.00
2023-12-09T11:27:42.414Z,605.00
2023-12-09T11:28:42.408Z,608.00
2023-12-09T11:29:42.425Z,606.00
2023-12-09T11:30:42.509Z,607.00
2023-12-09T11:31:42.463Z,606.00
2023-12-09T11:32:42.450Z,608.00
2023-12-09T11:33:42.548Z,605.00
2023-12-09T11:34:42.536Z,609.00
2023-12-09T11:35:42.578Z,605.00
2023-12-09T11:36:42.615Z,603.00
2023-12-09T11:37:42.583Z,607.00
2023-12-09T11:38:42.595Z,609.00
2023-12-09T11:39:42.708Z,607.00
2023-12-09T11:40:42.632Z,608.00
2023-12-09T11:41:42.677Z,608.00
2023-12-09T11:42:42.733Z,604.00
2023-12-09T11:43:42.787Z,604.00
2023-12-09T11:44:42.733Z,607.00
2023-12-09T11:45:42.804Z,611.00
2023-12-09T11:46:42.808Z,605.00
2023-12-09T11:47:42.951Z,606.00
2023-12-09T11:48:42.935Z,604.00
2023-12-09T11:49:42.984Z,605.00
2023-12-09T11:50:42.886Z,602.00
2023-12-09T11:51:43.032Z,605.00
2023-12-09T11:52:42.989Z,607.00
2023-12-09T11:53:42.989Z,604.00
2023-12-09T11:54:43.058Z,600.00
2023-12-09T11:55:43.066Z,604.00
2023-12-09T11:56:43.079Z,605.00
2023-12-09T11:57:43.200Z,604.00
2023-12-09T11:58:43.128Z,604.00
2023-12-09T11:59:43.214Z,604.00
2023-12-09T12:00:43.314Z,601.00
2023-12-09T12:01:43.196Z,605.00
2023-12-09T12:02:43.221Z,607.00
2023-12-09T12:03:43.315Z,608.00
2023-12-09T12:04:43.285Z,604.00
2023-12-09T12:05:43.365Z,604.00
2023-12-09T12:06:43.368Z,605.00
2023-12-09T12:07:43.328Z,603.00
2023-12-09T12:08:43.371Z,606.00
2023-12-09T12:09:43.476Z,604.00
2023-12-09T12:10:43.413Z,602.00
2023-12-09T12:11:43.484Z,607.00
2023-12-09T12:12:43.575Z,602.00
2023-12-09T12:13:43.512Z,605.00
2023-12-09T12:14:43.548Z,608.00
2023-12-09T12:15:43.613Z,601.00
2023-12-09T12:16:43.620Z,604.00
2023-12-09T12:17:43.764Z,604.00
2023-12-09T12:18:43.758Z,604.00
2023-12-09T12:19:43.719Z,606.00
2023-12-09T12:20:43.701Z,605.00
2023-12-09T12:21:43.762Z,608.00
2023-12-09T12:22:43.715Z,606.00
2023-12-09T12:23:43.835Z,606.00
2023-12-09T12:24:43.803Z,609.00
2023-12-09T12:25:43.782Z,606.00
2023-12-09T12:26:43.809Z,604.00
2023-12-09T12:27:43.883Z,604.00
2023-12-09T12:28:43.867Z,606.00